Observations for SOUTHEND-ON-SEA, United Kingdom (EGMC)

EGMC 100850Z 28005KT 9999 FEW048 05/03 Q1026
EGMC 100820Z 27007KT 9999 FEW048 06/04 Q1025
EGMC 100750Z 27008KT 9999 SCT047 06/04 Q1025
EGMC 100720Z 27009KT 9999 FEW048 05/03 Q1025
EGMC 100650Z 27009KT CAVOK 05/03 Q1025  
EGMC 100620Z 27012KT CAVOK 06/03 Q1024  
EGMC 100550Z 27010KT CAVOK 06/03 Q1024  
EGMC 100520Z 27010KT CAVOK 06/03 Q1024  
EGMC 100450Z 27008KT CAVOK 05/03 Q1023  
EGMC 100350Z 27009KT CAVOK 06/03 Q1023  
EGMC 100250Z 27010KT 9999 FEW047 06/03 Q1023
EGMC 100150Z 25008KT 9999 FEW046 06/03 Q1022
EGMC 100050Z 26008KT CAVOK 06/03 Q1022  
EGMC 100020Z 26010KT CAVOK 06/03 Q1022  
EGMC 092350Z 27010KT CAVOK 06/03 Q1021  
EGMC 092320Z 26009KT CAVOK 07/03 Q1021  
EGMC 092250Z 27007KT CAVOK 07/03 Q1021  
EGMC 092220Z 29006KT CAVOK 07/03 Q1020  
EGMC 092150Z 28007KT CAVOK 07/03 Q1020  
EGMC 092120Z 29006KT 250V320 CAVOK 07/03 Q1020  
EGMC 092050Z 28008KT 9999 FEW046 07/02 Q1019
EGMC 092020Z 29009KT 9999 SCT043 08/04 Q1019
EGMC 091950Z 28011KT 9999 BKN043 08/04 Q1019
EGMC 091920Z 29009KT 260V320 9999 BKN042 09/03 Q1018
EGMC 091850Z 28010KT 260V320 9999 BKN041 08/03 Q1017
EGMC 091820Z 29009KT 9999 FEW046 08/03 Q1017
EGMC 091750Z 30010KT 250V320 9999 FEW034 08/03 Q1016
EGMC 091720Z 30010KT 9999 FEW034 08/03 Q1016
EGMC 091650Z 30010KT 9999 FEW034 07/02 Q1015
EGMC 091620Z 30012KT 9999 FEW034 08/03 Q1014
EGMC 091550Z 30010KT 9999 FEW034 09/04 Q1013
EGMC 091520Z 30011KT 9999 FEW022 SCT038 09/04 Q1013 
EGMC 091450Z 30011KT 260V340 9999 FEW030 SCT040 10/04 Q1012 
EGMC 091420Z 30010KT 260V340 9999 FEW032 SCT037 11/05 Q1011 
EGMC 091350Z 30015G25KT 9999 FEW027 SCT032 11/05 Q1010  
EGMC 091320Z 31013G23KT 9999 FEW027 SCT033 10/05 Q1009  
EGMC 091250Z 31011KT 280V340 9999 FEW024 BKN034 10/06 Q1009 
EGMC 091220Z 30015KT 9999 VCSH FEW023 SCT029 10/06 Q1008
EGMC 091150Z 30013KT 9999 VCSH FEW010 SCT039 09/06 Q1007
EGMC 091120Z VRB12KT 9999 VCSH FEW010 BKN035 09/07 Q1006
EGMC 091050Z 30013KT 250V320 9999 -SHRA FEW008 BKN029 10/06 Q1006   
EGMC 091050Z 30013KT 250V320 9999 -SHRA FEW014 SCT025 10/06 Q1006
EGMC 091020Z 28013KT 250V320 9999 VCSH FEW014 SCT025 10/06 Q1005
EGMC 090950Z 28013KT 260V320 9999 FEW024 SCT027 09/06 Q1004 
EGMC 090920Z 28012KT 260V320 9999 FEW030 SCT038 09/06 Q1003 
EGMC 090850Z 27013KT 9999 FEW029 SCT033 09/06 Q1002 
EGMC 090820Z 27014KT 9000 -RA FEW030 SCT042 09/06 Q1002